sensor_id;sensor_type;location;lat;lon;timestamp;P1;durP1;ratioP1;P2;durP2;ratioP2
26157;SDS011;67284;44.782;10.282;2023-04-12T00:04:39;4.40;;;2.83;;
26157;SDS011;67284;44.782;10.282;2023-04-12T00:09:32;2.88;;;2.58;;
26157;SDS011;67284;44.782;10.282;2023-04-12T00:14:27;3.10;;;2.53;;
26157;SDS011;67284;44.782;10.282;2023-04-12T00:19:19;4.00;;;2.40;;
26157;SDS011;67284;44.782;10.282;2023-04-12T00:24:12;3.17;;;2.17;;
26157;SDS011;67284;44.782;10.282;2023-04-12T00:29:03;2.88;;;2.60;;
26157;SDS011;67284;44.782;10.282;2023-04-12T00:33:55;4.05;;;2.88;;
26157;SDS011;67284;44.782;10.282;2023-04-12T00:38:49;5.90;;;4.97;;
26157;SDS011;67284;44.782;10.282;2023-04-12T00:43:41;6.82;;;4.82;;
26157;SDS011;67284;44.782;10.282;2023-04-12T00:48:33;5.43;;;4.75;;
26157;SDS011;67284;44.782;10.282;2023-04-12T00:53:25;5.35;;;4.43;;
26157;SDS011;67284;44.782;10.282;2023-04-12T00:58:17;7.25;;;4.82;;
26157;SDS011;67284;44.782;10.282;2023-04-12T01:03:09;6.22;;;5.22;;
26157;SDS011;67284;44.782;10.282;2023-04-12T01:08:06;7.25;;;5.28;;
26157;SDS011;67284;44.782;10.282;2023-04-12T01:13:16;6.05;;;4.90;;
26157;SDS011;67284;44.782;10.282;2023-04-12T01:18:38;11.80;;;6.05;;
26157;SDS011;67284;44.782;10.282;2023-04-12T01:23:50;9.80;;;6.80;;
26157;SDS011;67284;44.782;10.282;2023-04-12T01:28:52;9.32;;;6.10;;
26157;SDS011;67284;44.782;10.282;2023-04-12T01:33:45;11.73;;;7.10;;
26157;SDS011;67284;44.782;10.282;2023-04-12T01:38:41;10.60;;;7.40;;
26157;SDS011;67284;44.782;10.282;2023-04-12T01:43:45;9.00;;;7.47;;
26157;SDS011;67284;44.782;10.282;2023-04-12T01:48:37;10.60;;;7.13;;
26157;SDS011;67284;44.782;10.282;2023-04-12T01:53:49;12.57;;;7.53;;
26157;SDS011;67284;44.782;10.282;2023-04-12T01:58:50;10.43;;;8.20;;
26157;SDS011;67284;44.782;10.282;2023-04-12T02:03:44;10.00;;;7.57;;
26157;SDS011;67284;44.782;10.282;2023-04-12T02:08:40;11.43;;;8.57;;
26157;SDS011;67284;44.782;10.282;2023-04-12T02:13:32;11.65;;;9.00;;
26157;SDS011;67284;44.782;10.282;2023-04-12T02:18:24;11.63;;;9.40;;
26157;SDS011;67284;44.782;10.282;2023-04-12T02:23:16;12.10;;;9.40;;
26157;SDS011;67284;44.782;10.282;2023-04-12T02:28:08;15.25;;;10.90;;
26157;SDS011;67284;44.782;10.282;2023-04-12T02:33:00;18.60;;;11.93;;
26157;SDS011;67284;44.782;10.282;2023-04-12T02:37:57;16.65;;;11.43;;
26157;SDS011;67284;44.782;10.282;2023-04-12T02:42:52;16.10;;;11.20;;
26157;SDS011;67284;44.782;10.282;2023-04-12T02:47:46;16.55;;;11.48;;
26157;SDS011;67284;44.782;10.282;2023-04-12T02:52:40;17.05;;;11.57;;
26157;SDS011;67284;44.782;10.282;2023-04-12T02:57:34;19.00;;;13.52;;
26157;SDS011;67284;44.782;10.282;2023-04-12T03:02:28;18.60;;;13.23;;
26157;SDS011;67284;44.782;10.282;2023-04-12T03:07:25;19.98;;;13.10;;
26157;SDS011;67284;44.782;10.282;2023-04-12T03:12:18;18.08;;;13.25;;
26157;SDS011;67284;44.782;10.282;2023-04-12T03:17:27;20.85;;;14.38;;
26157;SDS011;67284;44.782;10.282;2023-04-12T03:22:20;18.83;;;13.52;;
26157;SDS011;67284;44.782;10.282;2023-04-12T03:27:18;22.33;;;14.13;;
26157;SDS011;67284;44.782;10.282;2023-04-12T03:32:10;21.33;;;14.10;;
26157;SDS011;67284;44.782;10.282;2023-04-12T03:37:03;21.15;;;13.75;;
26157;SDS011;67284;44.782;10.282;2023-04-12T03:42:01;20.75;;;14.55;;
26157;SDS011;67284;44.782;10.282;2023-04-12T03:46:53;22.45;;;14.52;;
26157;SDS011;67284;44.782;10.282;2023-04-12T03:51:47;21.88;;;14.30;;
26157;SDS011;67284;44.782;10.282;2023-04-12T03:56:41;20.67;;;15.05;;
26157;SDS011;67284;44.782;10.282;2023-04-12T04:01:43;23.67;;;16.10;;
26157;SDS011;67284;44.782;10.282;2023-04-12T04:06:35;21.05;;;14.55;;
26157;SDS011;67284;44.782;10.282;2023-04-12T04:11:28;19.35;;;13.88;;
26157;SDS011;67284;44.782;10.282;2023-04-12T04:16:28;23.50;;;15.35;;
26157;SDS011;67284;44.782;10.282;2023-04-12T04:21:23;18.27;;;13.57;;
26157;SDS011;67284;44.782;10.282;2023-04-12T04:26:19;21.40;;;13.73;;
26157;SDS011;67284;44.782;10.282;2023-04-12T04:31:26;20.38;;;14.23;;
26157;SDS011;67284;44.782;10.282;2023-04-12T04:36:18;18.27;;;13.07;;
26157;SDS011;67284;44.782;10.282;2023-04-12T04:41:15;15.63;;;11.60;;
26157;SDS011;67284;44.782;10.282;2023-04-12T04:46:14;16.27;;;11.02;;
26157;SDS011;67284;44.782;10.282;2023-04-12T04:51:07;14.93;;;10.45;;
26157;SDS011;67284;44.782;10.282;2023-04-12T04:55:59;13.07;;;10.35;;
26157;SDS011;67284;44.782;10.282;2023-04-12T05:00:57;12.00;;;9.00;;
26157;SDS011;67284;44.782;10.282;2023-04-12T05:05:52;13.18;;;9.68;;
26157;SDS011;67284;44.782;10.282;2023-04-12T05:10:48;13.07;;;9.13;;
26157;SDS011;67284;44.782;10.282;2023-04-12T05:15:43;15.10;;;9.70;;
26157;SDS011;67284;44.782;10.282;2023-04-12T05:20:38;12.75;;;9.40;;
26157;SDS011;67284;44.782;10.282;2023-04-12T05:25:30;15.63;;;10.35;;
26157;SDS011;67284;44.782;10.282;2023-04-12T05:30:30;14.32;;;10.38;;
26157;SDS011;67284;44.782;10.282;2023-04-12T05:35:22;15.30;;;10.48;;
26157;SDS011;67284;44.782;10.282;2023-04-12T05:40:19;16.90;;;11.35;;
26157;SDS011;67284;44.782;10.282;2023-04-12T05:45:15;19.23;;;11.77;;
26157;SDS011;67284;44.782;10.282;2023-04-12T05:50:07;20.95;;;12.63;;
26157;SDS011;67284;44.782;10.282;2023-04-12T05:54:59;18.80;;;12.02;;
26157;SDS011;67284;44.782;10.282;2023-04-12T05:59:53;21.23;;;14.10;;
26157;SDS011;67284;44.782;10.282;2023-04-12T06:04:46;26.13;;;14.75;;
26157;SDS011;67284;44.782;10.282;2023-04-12T06:09:43;24.55;;;15.40;;
26157;SDS011;67284;44.782;10.282;2023-04-12T06:14:38;35.97;;;18.67;;
26157;SDS011;67284;44.782;10.282;2023-04-12T06:19:31;30.20;;;18.83;;
26157;SDS011;67284;44.782;10.282;2023-04-12T06:24:23;32.50;;;19.92;;
26157;SDS011;67284;44.782;10.282;2023-04-12T06:29:18;39.13;;;22.35;;
26157;SDS011;67284;44.782;10.282;2023-04-12T06:34:10;36.33;;;21.92;;
26157;SDS011;67284;44.782;10.282;2023-04-12T06:39:02;43.55;;;24.15;;
26157;SDS011;67284;44.782;10.282;2023-04-12T06:43:55;42.72;;;25.85;;
26157;SDS011;67284;44.782;10.282;2023-04-12T06:48:46;47.92;;;26.88;;
26157;SDS011;67284;44.782;10.282;2023-04-12T06:53:39;50.85;;;27.15;;
26157;SDS011;67284;44.782;10.282;2023-04-12T06:58:33;48.47;;;27.60;;
26157;SDS011;67284;44.782;10.282;2023-04-12T07:03:25;50.83;;;28.92;;
26157;SDS011;67284;44.782;10.282;2023-04-12T07:08:19;45.92;;;28.70;;
26157;SDS011;67284;44.782;10.282;2023-04-12T07:13:11;46.72;;;28.45;;
26157;SDS011;67284;44.782;10.282;2023-04-12T07:18:03;46.30;;;28.90;;
26157;SDS011;67284;44.782;10.282;2023-04-12T07:22:57;42.25;;;25.90;;
26157;SDS011;67284;44.782;10.282;2023-04-12T07:27:49;44.47;;;26.00;;
26157;SDS011;67284;44.782;10.282;2023-04-12T07:32:42;42.05;;;26.30;;
26157;SDS011;67284;44.782;10.282;2023-04-12T07:37:36;44.88;;;27.88;;
26157;SDS011;67284;44.782;10.282;2023-04-12T07:42:28;41.10;;;24.92;;
26157;SDS011;67284;44.782;10.282;2023-04-12T07:47:21;48.75;;;27.67;;
26157;SDS011;67284;44.782;10.282;2023-04-12T07:52:13;39.92;;;24.15;;
26157;SDS011;67284;44.782;10.282;2023-04-12T07:57:05;43.63;;;27.30;;
26157;SDS011;67284;44.782;10.282;2023-04-12T08:01:58;53.03;;;29.20;;
26157;SDS011;67284;44.782;10.282;2023-04-12T08:06:52;46.33;;;27.10;;
26157;SDS011;67284;44.782;10.282;2023-04-12T08:11:45;51.15;;;28.92;;
26157;SDS011;67284;44.782;10.282;2023-04-12T08:16:40;47.03;;;28.20;;
26157;SDS011;67284;44.782;10.282;2023-04-12T08:21:32;49.65;;;29.27;;
26157;SDS011;67284;44.782;10.282;2023-04-12T08:26:25;48.58;;;28.65;;
26157;SDS011;67284;44.782;10.282;2023-04-12T08:31:20;50.10;;;28.63;;
26157;SDS011;67284;44.782;10.282;2023-04-12T08:36:13;47.50;;;28.23;;
26157;SDS011;67284;44.782;10.282;2023-04-12T08:41:06;45.63;;;28.13;;
26157;SDS011;67284;44.782;10.282;2023-04-12T08:45:58;42.20;;;25.77;;
26157;SDS011;67284;44.782;10.282;2023-04-12T08:50:51;44.78;;;26.58;;
26157;SDS011;67284;44.782;10.282;2023-04-12T08:55:43;42.95;;;26.83;;
26157;SDS011;67284;44.782;10.282;2023-04-12T09:00:36;45.65;;;27.50;;
26157;SDS011;67284;44.782;10.282;2023-04-12T09:05:29;46.60;;;27.73;;
26157;SDS011;67284;44.782;10.282;2023-04-12T09:10:34;46.92;;;27.63;;
26157;SDS011;67284;44.782;10.282;2023-04-12T09:15:27;50.15;;;29.00;;
26157;SDS011;67284;44.782;10.282;2023-04-12T09:25:12;51.67;;;28.65;;
26157;SDS011;67284;44.782;10.282;2023-04-12T09:30:06;53.83;;;30.35;;
26157;SDS011;67284;44.782;10.282;2023-04-12T09:34:59;53.58;;;29.10;;
26157;SDS011;67284;44.782;10.282;2023-04-12T09:39:59;59.40;;;31.90;;
26157;SDS011;67284;44.782;10.282;2023-04-12T09:45:17;40.67;;;25.08;;
26157;SDS011;67284;44.782;10.282;2023-04-12T09:50:25;52.63;;;28.95;;
26157;SDS011;67284;44.782;10.282;2023-04-12T09:55:20;53.70;;;28.42;;
26157;SDS011;67284;44.782;10.282;2023-04-12T10:00:13;53.75;;;30.92;;
26157;SDS011;67284;44.782;10.282;2023-04-12T10:05:09;53.20;;;31.92;;
26157;SDS011;67284;44.782;10.282;2023-04-12T10:10:04;49.40;;;29.95;;
26157;SDS011;67284;44.782;10.282;2023-04-12T10:14:57;52.80;;;33.47;;
26157;SDS011;67284;44.782;10.282;2023-04-12T10:19:50;54.40;;;31.45;;
26157;SDS011;67284;44.782;10.282;2023-04-12T10:24:42;57.17;;;32.78;;
26157;SDS011;67284;44.782;10.282;2023-04-12T10:29:34;56.80;;;34.58;;
26157;SDS011;67284;44.782;10.282;2023-04-12T10:34:29;50.88;;;30.67;;
26157;SDS011;67284;44.782;10.282;2023-04-12T10:44:33;53.85;;;31.02;;
26157;SDS011;67284;44.782;10.282;2023-04-12T10:49:25;55.70;;;31.70;;
26157;SDS011;67284;44.782;10.282;2023-04-12T10:59:09;56.92;;;32.90;;
26157;SDS011;67284;44.782;10.282;2023-04-12T11:04:12;50.65;;;32.00;;
26157;SDS011;67284;44.782;10.282;2023-04-12T11:14:28;51.58;;;30.27;;
26157;SDS011;67284;44.782;10.282;2023-04-12T11:19:24;51.88;;;30.42;;
26157;SDS011;67284;44.782;10.282;2023-04-12T11:24:16;52.78;;;32.00;;
26157;SDS011;67284;44.782;10.282;2023-04-12T11:29:11;49.28;;;30.30;;
26157;SDS011;67284;44.782;10.282;2023-04-12T11:34:03;42.28;;;28.35;;
26157;SDS011;67284;44.782;10.282;2023-04-12T11:38:55;45.50;;;28.73;;
26157;SDS011;67284;44.782;10.282;2023-04-12T11:43:47;44.75;;;28.85;;
26157;SDS011;67284;44.782;10.282;2023-04-12T11:48:43;39.47;;;25.52;;
26157;SDS011;67284;44.782;10.282;2023-04-12T11:53:36;41.60;;;27.27;;
26157;SDS011;67284;44.782;10.282;2023-04-12T11:58:28;44.83;;;28.35;;
26157;SDS011;67284;44.782;10.282;2023-04-12T12:03:19;40.80;;;25.77;;
26157;SDS011;67284;44.782;10.282;2023-04-12T12:08:12;33.25;;;23.20;;
26157;SDS011;67284;44.782;10.282;2023-04-12T12:13:11;39.03;;;23.65;;
26157;SDS011;67284;44.782;10.282;2023-04-12T12:18:06;38.88;;;25.52;;
26157;SDS011;67284;44.782;10.282;2023-04-12T12:22:59;44.45;;;30.83;;
26157;SDS011;67284;44.782;10.282;2023-04-12T12:27:55;43.75;;;27.42;;
26157;SDS011;67284;44.782;10.282;2023-04-12T12:32:48;35.85;;;23.20;;
26157;SDS011;67284;44.782;10.282;2023-04-12T12:37:52;36.05;;;24.55;;
26157;SDS011;67284;44.782;10.282;2023-04-12T12:42:51;35.38;;;25.33;;
26157;SDS011;67284;44.782;10.282;2023-04-12T12:47:51;40.47;;;25.33;;
26157;SDS011;67284;44.782;10.282;2023-04-12T12:52:54;40.67;;;26.95;;
26157;SDS011;67284;44.782;10.282;2023-04-12T12:57:47;39.55;;;26.40;;
26157;SDS011;67284;44.782;10.282;2023-04-12T13:02:57;37.55;;;25.63;;
26157;SDS011;67284;44.782;10.282;2023-04-12T13:07:49;33.00;;;23.30;;
26157;SDS011;67284;44.782;10.282;2023-04-12T13:12:41;30.73;;;22.17;;
26157;SDS011;67284;44.782;10.282;2023-04-12T13:17:33;32.35;;;23.35;;
26157;SDS011;67284;44.782;10.282;2023-04-12T13:22:25;29.50;;;21.15;;
26157;SDS011;67284;44.782;10.282;2023-04-12T13:27:17;29.48;;;21.65;;
26157;SDS011;67284;44.782;10.282;2023-04-12T13:32:09;30.13;;;20.85;;
26157;SDS011;67284;44.782;10.282;2023-04-12T13:37:01;31.20;;;21.80;;
26157;SDS011;67284;44.782;10.282;2023-04-12T13:41:53;32.45;;;21.75;;
26157;SDS011;67284;44.782;10.282;2023-04-12T13:46:45;26.92;;;18.95;;
26157;SDS011;67284;44.782;10.282;2023-04-12T13:51:37;34.22;;;21.00;;
26157;SDS011;67284;44.782;10.282;2023-04-12T13:56:29;27.50;;;19.80;;
26157;SDS011;67284;44.782;10.282;2023-04-12T14:01:21;27.90;;;20.92;;
26157;SDS011;67284;44.782;10.282;2023-04-12T14:06:15;28.98;;;18.63;;
26157;SDS011;67284;44.782;10.282;2023-04-12T14:11:07;30.23;;;21.13;;
26157;SDS011;67284;44.782;10.282;2023-04-12T14:15:59;31.80;;;21.90;;
26157;SDS011;67284;44.782;10.282;2023-04-12T14:20:51;33.40;;;20.85;;
26157;SDS011;67284;44.782;10.282;2023-04-12T14:25:43;35.88;;;21.90;;
26157;SDS011;67284;44.782;10.282;2023-04-12T14:30:35;42.78;;;26.67;;
26157;SDS011;67284;44.782;10.282;2023-04-12T14:35:26;37.25;;;26.20;;
26157;SDS011;67284;44.782;10.282;2023-04-12T14:40:19;32.63;;;23.42;;
26157;SDS011;67284;44.782;10.282;2023-04-12T14:45:11;30.38;;;21.40;;
26157;SDS011;67284;44.782;10.282;2023-04-12T14:50:02;30.08;;;19.75;;
26157;SDS011;67284;44.782;10.282;2023-04-12T14:54:54;28.90;;;21.20;;
26157;SDS011;67284;44.782;10.282;2023-04-12T14:59:46;27.75;;;19.90;;
26157;SDS011;67284;44.782;10.282;2023-04-12T15:04:38;29.95;;;19.98;;
26157;SDS011;67284;44.782;10.282;2023-04-12T15:09:30;32.05;;;22.48;;
26157;SDS011;67284;44.782;10.282;2023-04-12T15:14:22;37.80;;;22.90;;
26157;SDS011;67284;44.782;10.282;2023-04-12T15:19:14;25.75;;;17.98;;
26157;SDS011;67284;44.782;10.282;2023-04-12T15:24:12;25.73;;;17.85;;
26157;SDS011;67284;44.782;10.282;2023-04-12T15:29:04;28.83;;;18.63;;
26157;SDS011;67284;44.782;10.282;2023-04-12T15:33:56;35.05;;;20.95;;
26157;SDS011;67284;44.782;10.282;2023-04-12T15:38:48;37.45;;;26.30;;
26157;SDS011;67284;44.782;10.282;2023-04-12T15:43:40;30.75;;;20.65;;
26157;SDS011;67284;44.782;10.282;2023-04-12T15:48:35;29.48;;;18.90;;
26157;SDS011;67284;44.782;10.282;2023-04-12T15:53:29;26.75;;;18.80;;
26157;SDS011;67284;44.782;10.282;2023-04-12T16:03:31;31.40;;;21.27;;
26157;SDS011;67284;44.782;10.282;2023-04-12T16:08:24;31.10;;;20.40;;
26157;SDS011;67284;44.782;10.282;2023-04-12T16:13:17;33.63;;;21.02;;
26157;SDS011;67284;44.782;10.282;2023-04-12T16:18:09;28.05;;;20.10;;
26157;SDS011;67284;44.782;10.282;2023-04-12T16:23:02;30.52;;;20.00;;
26157;SDS011;67284;44.782;10.282;2023-04-12T16:27:55;31.52;;;20.42;;
26157;SDS011;67284;44.782;10.282;2023-04-12T16:32:47;32.38;;;23.90;;
26157;SDS011;67284;44.782;10.282;2023-04-12T16:37:42;26.67;;;19.20;;
26157;SDS011;67284;44.782;10.282;2023-04-12T16:42:35;35.28;;;20.92;;
26157;SDS011;67284;44.782;10.282;2023-04-12T16:47:27;29.25;;;19.17;;
26157;SDS011;67284;44.782;10.282;2023-04-12T16:52:19;28.80;;;17.25;;
26157;SDS011;67284;44.782;10.282;2023-04-12T16:57:11;27.55;;;18.42;;
26157;SDS011;67284;44.782;10.282;2023-04-12T17:02:03;33.75;;;20.45;;
26157;SDS011;67284;44.782;10.282;2023-04-12T17:06:55;26.73;;;19.90;;
26157;SDS011;67284;44.782;10.282;2023-04-12T17:11:47;33.15;;;24.48;;
26157;SDS011;67284;44.782;10.282;2023-04-12T17:16:39;27.55;;;18.98;;
26157;SDS011;67284;44.782;10.282;2023-04-12T17:21:40;28.55;;;19.55;;
26157;SDS011;67284;44.782;10.282;2023-04-12T17:26:32;26.83;;;18.65;;
26157;SDS011;67284;44.782;10.282;2023-04-12T17:31:24;27.58;;;20.75;;
26157;SDS011;67284;44.782;10.282;2023-04-12T17:36:17;29.38;;;19.88;;
26157;SDS011;67284;44.782;10.282;2023-04-12T17:41:09;23.48;;;17.88;;
26157;SDS011;67284;44.782;10.282;2023-04-12T17:46:01;27.55;;;18.67;;
26157;SDS011;67284;44.782;10.282;2023-04-12T17:50:54;28.48;;;19.25;;
26157;SDS011;67284;44.782;10.282;2023-04-12T17:55:46;34.15;;;24.50;;
26157;SDS011;67284;44.782;10.282;2023-04-12T18:00:40;32.80;;;20.92;;
26157;SDS011;67284;44.782;10.282;2023-04-12T18:05:34;32.38;;;20.90;;
26157;SDS011;67284;44.782;10.282;2023-04-12T18:10:25;31.23;;;20.52;;
26157;SDS011;67284;44.782;10.282;2023-04-12T18:15:18;31.50;;;19.90;;
26157;SDS011;67284;44.782;10.282;2023-04-12T18:20:10;29.63;;;19.55;;
26157;SDS011;67284;44.782;10.282;2023-04-12T18:25:02;29.15;;;20.40;;
26157;SDS011;67284;44.782;10.282;2023-04-12T18:29:55;33.45;;;21.10;;
26157;SDS011;67284;44.782;10.282;2023-04-12T18:34:47;36.25;;;23.42;;
26157;SDS011;67284;44.782;10.282;2023-04-12T18:39:39;27.02;;;18.90;;
26157;SDS011;67284;44.782;10.282;2023-04-12T18:44:33;29.25;;;18.35;;
26157;SDS011;67284;44.782;10.282;2023-04-12T18:49:25;27.42;;;18.88;;
26157;SDS011;67284;44.782;10.282;2023-04-12T18:54:17;23.65;;;16.85;;
26157;SDS011;67284;44.782;10.282;2023-04-12T18:59:08;27.48;;;18.20;;
26157;SDS011;67284;44.782;10.282;2023-04-12T19:04:08;32.97;;;20.17;;
26157;SDS011;67284;44.782;10.282;2023-04-12T19:09:00;25.65;;;16.80;;
26157;SDS011;67284;44.782;10.282;2023-04-12T19:13:54;25.65;;;17.92;;
26157;SDS011;67284;44.782;10.282;2023-04-12T19:18:50;33.90;;;20.88;;
26157;SDS011;67284;44.782;10.282;2023-04-12T19:23:42;33.83;;;21.77;;
26157;SDS011;67284;44.782;10.282;2023-04-12T19:28:34;29.77;;;19.20;;
26157;SDS011;67284;44.782;10.282;2023-04-12T19:33:27;30.10;;;19.90;;
26157;SDS011;67284;44.782;10.282;2023-04-12T19:38:19;31.77;;;19.30;;
26157;SDS011;67284;44.782;10.282;2023-04-12T19:43:13;31.90;;;19.98;;
26157;SDS011;67284;44.782;10.282;2023-04-12T19:48:05;34.03;;;20.60;;
26157;SDS011;67284;44.782;10.282;2023-04-12T19:52:57;33.17;;;21.00;;
26157;SDS011;67284;44.782;10.282;2023-04-12T19:57:49;38.50;;;22.42;;
26157;SDS011;67284;44.782;10.282;2023-04-12T20:02:41;35.22;;;20.92;;
26157;SDS011;67284;44.782;10.282;2023-04-12T20:07:33;32.70;;;21.67;;
26157;SDS011;67284;44.782;10.282;2023-04-12T20:12:25;30.08;;;20.80;;
26157;SDS011;67284;44.782;10.282;2023-04-12T20:17:17;31.67;;;20.67;;
26157;SDS011;67284;44.782;10.282;2023-04-12T20:22:09;27.80;;;19.83;;
26157;SDS011;67284;44.782;10.282;2023-04-12T20:27:01;30.60;;;19.00;;
26157;SDS011;67284;44.782;10.282;2023-04-12T20:31:54;30.95;;;19.23;;
26157;SDS011;67284;44.782;10.282;2023-04-12T20:36:47;25.05;;;17.65;;
26157;SDS011;67284;44.782;10.282;2023-04-12T20:41:39;25.63;;;19.30;;
26157;SDS011;67284;44.782;10.282;2023-04-12T20:46:31;25.05;;;18.25;;
26157;SDS011;67284;44.782;10.282;2023-04-12T20:51:27;28.98;;;20.50;;
26157;SDS011;67284;44.782;10.282;2023-04-12T20:56:19;33.25;;;21.20;;
26157;SDS011;67284;44.782;10.282;2023-04-12T21:01:11;28.02;;;18.63;;
26157;SDS011;67284;44.782;10.282;2023-04-12T21:06:08;27.30;;;20.52;;
26157;SDS011;67284;44.782;10.282;2023-04-12T21:11:19;24.08;;;17.67;;
26157;SDS011;67284;44.782;10.282;2023-04-12T21:17:35;24.58;;;16.75;;
26157;SDS011;67284;44.782;10.282;2023-04-12T21:23:09;28.38;;;17.58;;
26157;SDS011;67284;44.782;10.282;2023-04-12T21:28:05;22.10;;;16.63;;
26157;SDS011;67284;44.782;10.282;2023-04-12T21:32:57;23.40;;;16.70;;
26157;SDS011;67284;44.782;10.282;2023-04-12T21:37:49;23.45;;;17.10;;
26157;SDS011;67284;44.782;10.282;2023-04-12T21:42:42;26.50;;;16.92;;
26157;SDS011;67284;44.782;10.282;2023-04-12T21:47:40;26.13;;;17.65;;
26157;SDS011;67284;44.782;10.282;2023-04-12T21:52:32;23.80;;;16.27;;
26157;SDS011;67284;44.782;10.282;2023-04-12T21:57:28;24.15;;;16.30;;
26157;SDS011;67284;44.782;10.282;2023-04-12T22:02:21;20.92;;;14.77;;
26157;SDS011;67284;44.782;10.282;2023-04-12T22:08:19;25.63;;;15.55;;
26157;SDS011;67284;44.782;10.282;2023-04-12T22:13:17;24.63;;;16.20;;
26157;SDS011;67284;44.782;10.282;2023-04-12T22:19:27;26.35;;;16.88;;
26157;SDS011;67284;44.782;10.282;2023-04-12T22:25:00;21.85;;;15.80;;
26157;SDS011;67284;44.782;10.282;2023-04-12T22:29:52;24.85;;;15.55;;
26157;SDS011;67284;44.782;10.282;2023-04-12T22:34:44;23.63;;;16.10;;
26157;SDS011;67284;44.782;10.282;2023-04-12T22:39:42;20.45;;;14.57;;
26157;SDS011;67284;44.782;10.282;2023-04-12T22:44:34;22.70;;;16.52;;
26157;SDS011;67284;44.782;10.282;2023-04-12T22:49:28;20.33;;;15.52;;
26157;SDS011;67284;44.782;10.282;2023-04-12T22:54:24;23.33;;;16.80;;
26157;SDS011;67284;44.782;10.282;2023-04-12T22:59:16;24.00;;;16.23;;
26157;SDS011;67284;44.782;10.282;2023-04-12T23:04:09;21.02;;;14.82;;
26157;SDS011;67284;44.782;10.282;2023-04-12T23:09:02;21.00;;;15.75;;
26157;SDS011;67284;44.782;10.282;2023-04-12T23:13:56;23.48;;;16.55;;
26157;SDS011;67284;44.782;10.282;2023-04-12T23:18:48;25.88;;;15.70;;
26157;SDS011;67284;44.782;10.282;2023-04-12T23:23:40;19.35;;;14.90;;
26157;SDS011;67284;44.782;10.282;2023-04-12T23:28:33;23.98;;;15.52;;
26157;SDS011;67284;44.782;10.282;2023-04-12T23:33:25;21.75;;;14.65;;
26157;SDS011;67284;44.782;10.282;2023-04-12T23:38:18;24.90;;;15.98;;
26157;SDS011;67284;44.782;10.282;2023-04-12T23:43:16;19.52;;;14.40;;
26157;SDS011;67284;44.782;10.282;2023-04-12T23:48:08;20.48;;;14.93;;
26157;SDS011;67284;44.782;10.282;2023-04-12T23:53:00;18.75;;;13.60;;
26157;SDS011;67284;44.782;10.282;2023-04-12T23:57:52;24.50;;;15.45;;
